createdAt,value
2023-05-18T00:00:41.634Z,0.00
2023-05-18T00:01:41.644Z,0.00
2023-05-18T00:02:41.714Z,0.00
2023-05-18T00:03:41.705Z,0.00
2023-05-18T00:04:41.656Z,0.00
2023-05-18T00:05:41.576Z,0.00
2023-05-18T00:06:41.573Z,0.00
2023-05-18T00:07:41.564Z,0.00
2023-05-18T00:08:41.589Z,0.00
2023-05-18T00:09:41.537Z,0.00
2023-05-18T00:10:41.523Z,0.00
2023-05-18T00:11:41.517Z,0.00
2023-05-18T00:12:41.514Z,0.00
2023-05-18T00:13:41.497Z,0.00
2023-05-18T00:14:41.507Z,0.00
2023-05-18T00:15:41.475Z,0.00
2023-05-18T00:16:41.553Z,0.00
2023-05-18T00:17:41.497Z,0.00
2023-05-18T00:18:41.481Z,0.00
2023-05-18T00:19:41.441Z,0.00
2023-05-18T00:20:41.428Z,0.00
2023-05-18T00:21:41.407Z,0.00
2023-05-18T00:22:41.396Z,0.00
2023-05-18T00:23:41.386Z,0.00
2023-05-18T00:24:41.420Z,0.00
2023-05-18T00:25:41.358Z,0.00
2023-05-18T00:26:41.373Z,0.00
2023-05-18T00:27:41.356Z,0.00
2023-05-18T00:28:41.331Z,0.00
2023-05-18T00:29:41.318Z,0.00
2023-05-18T00:30:41.332Z,0.00
2023-05-18T00:31:41.335Z,0.00
2023-05-18T00:32:41.375Z,0.00
2023-05-18T00:33:41.300Z,0.00
2023-05-18T00:34:41.288Z,0.00
2023-05-18T00:35:41.255Z,0.00
2023-05-18T00:36:41.256Z,0.00
2023-05-18T00:37:41.232Z,0.00
2023-05-18T00:38:41.255Z,0.00
2023-05-18T00:39:41.211Z,0.00
2023-05-18T00:40:41.204Z,0.00
2023-05-18T00:41:41.195Z,0.00
2023-05-18T00:42:41.252Z,0.00
2023-05-18T00:43:41.184Z,0.00
2023-05-18T00:44:41.241Z,0.00
2023-05-18T00:45:41.185Z,0.00
2023-05-18T00:46:41.184Z,0.00
2023-05-18T00:47:41.203Z,0.00
2023-05-18T00:48:41.181Z,0.00
2023-05-18T00:49:41.157Z,0.00
2023-05-18T00:50:41.153Z,0.00
2023-05-18T00:51:41.149Z,0.00
2023-05-18T00:52:41.089Z,0.00
2023-05-18T00:53:43.417Z,0.00
2023-05-18T00:54:41.071Z,0.00
2023-05-18T00:55:41.045Z,0.00
2023-05-18T00:56:41.056Z,0.00
2023-05-18T00:57:41.022Z,0.00
2023-05-18T00:58:41.030Z,0.00
2023-05-18T00:59:41.002Z,0.00
2023-05-18T01:00:40.997Z,0.00
2023-05-18T01:01:41.059Z,0.00
2023-05-18T01:02:41.072Z,0.00
2023-05-18T01:03:41.023Z,0.00
2023-05-18T01:04:40.948Z,0.00
2023-05-18T01:05:40.963Z,0.00
2023-05-18T01:06:40.935Z,0.00
2023-05-18T01:07:40.924Z,0.00
2023-05-18T01:08:40.927Z,0.00
2023-05-18T01:09:40.920Z,0.00
2023-05-18T01:10:40.888Z,0.00
2023-05-18T01:11:40.932Z,0.00
2023-05-18T01:12:40.874Z,0.00
2023-05-18T01:13:40.848Z,0.00
2023-05-18T01:14:40.866Z,0.00
2023-05-18T01:15:40.827Z,0.00
2023-05-18T01:16:40.847Z,0.00
2023-05-18T01:17:40.844Z,0.00
2023-05-18T01:18:40.841Z,0.00
2023-05-18T01:19:40.790Z,0.00
2023-05-18T01:20:40.814Z,0.00
2023-05-18T01:21:40.780Z,0.00
2023-05-18T01:22:40.776Z,0.00
2023-05-18T01:23:40.744Z,0.00
2023-05-18T01:24:40.736Z,0.00
2023-05-18T01:25:40.725Z,0.00
2023-05-18T01:26:40.747Z,0.00
2023-05-18T01:27:40.698Z,0.00
2023-05-18T01:28:40.706Z,0.00
2023-05-18T01:29:40.680Z,0.00
2023-05-18T01:30:40.686Z,0.00
2023-05-18T01:31:40.657Z,0.00
2023-05-18T01:32:40.749Z,0.00
2023-05-18T01:33:40.641Z,0.00
2023-05-18T01:34:40.627Z,0.00
2023-05-18T01:35:40.614Z,0.00
2023-05-18T01:36:40.604Z,0.00
2023-05-18T01:37:40.626Z,0.00
2023-05-18T01:38:43.125Z,0.00
2023-05-18T01:39:40.573Z,0.00
2023-05-18T01:40:40.574Z,0.00
2023-05-18T01:41:40.553Z,0.00
2023-05-18T01:42:40.550Z,0.00
2023-05-18T01:43:40.527Z,0.00
2023-05-18T01:44:40.584Z,0.00
2023-05-18T01:45:40.506Z,0.00
2023-05-18T01:46:40.561Z,0.00
2023-05-18T01:47:40.566Z,0.00
2023-05-18T01:48:40.476Z,0.00
2023-05-18T01:49:40.475Z,0.00
2023-05-18T01:50:40.492Z,0.00
2023-05-18T01:51:40.445Z,0.00
2023-05-18T01:52:40.442Z,0.00
2023-05-18T01:53:40.450Z,0.00
2023-05-18T01:54:40.410Z,0.00
2023-05-18T01:55:40.465Z,0.00
2023-05-18T01:56:40.441Z,0.00
2023-05-18T01:57:40.384Z,0.00
2023-05-18T01:58:40.372Z,0.00
2023-05-18T01:59:40.359Z,0.00
2023-05-18T02:00:40.347Z,0.00
2023-05-18T02:01:40.349Z,0.00
2023-05-18T02:02:40.497Z,0.00
2023-05-18T02:03:40.389Z,0.00
2023-05-18T02:04:40.304Z,0.00
2023-05-18T02:05:40.290Z,0.00
2023-05-18T02:06:40.290Z,0.00
2023-05-18T02:07:40.283Z,0.00
2023-05-18T02:08:40.297Z,0.00
2023-05-18T02:09:40.270Z,0.00
2023-05-18T02:10:40.241Z,0.00
2023-05-18T02:11:40.226Z,0.00
2023-05-18T02:12:40.229Z,0.00
2023-05-18T02:13:40.219Z,0.00
2023-05-18T02:14:40.216Z,0.00
2023-05-18T02:15:40.180Z,0.00
2023-05-18T02:16:40.271Z,0.00
2023-05-18T02:17:40.323Z,0.00
2023-05-18T02:18:40.184Z,0.00
2023-05-18T02:19:40.134Z,0.00
2023-05-18T02:20:40.150Z,0.00
2023-05-18T02:21:40.117Z,0.00
2023-05-18T02:22:40.133Z,0.00
2023-05-18T02:23:40.093Z,0.00
2023-05-18T02:24:40.094Z,0.00
2023-05-18T02:25:40.114Z,0.00
2023-05-18T02:26:40.120Z,0.00
2023-05-18T02:27:40.053Z,0.00
2023-05-18T02:28:40.095Z,0.00
2023-05-18T02:29:40.034Z,0.00
2023-05-18T02:30:40.018Z,0.00
2023-05-18T02:31:40.015Z,0.00
2023-05-18T02:32:40.053Z,0.00
2023-05-18T02:33:40.250Z,0.00
2023-05-18T02:34:39.988Z,0.00
2023-05-18T02:35:39.966Z,0.00
2023-05-18T02:36:40.180Z,0.00
2023-05-18T02:37:40.274Z,0.00
2023-05-18T02:38:39.966Z,0.00
2023-05-18T02:39:39.919Z,0.00
2023-05-18T02:40:39.922Z,0.00
2023-05-18T02:41:39.985Z,0.00
2023-05-18T02:42:39.895Z,0.00
2023-05-18T02:43:39.876Z,0.00
2023-05-18T02:44:39.899Z,0.00
2023-05-18T02:45:39.896Z,0.00
2023-05-18T02:46:39.858Z,0.00
2023-05-18T02:47:39.877Z,0.00
2023-05-18T02:48:39.837Z,0.00
2023-05-18T02:49:39.818Z,0.00
2023-05-18T02:50:39.852Z,0.00
2023-05-18T02:51:39.796Z,0.00
2023-05-18T02:52:39.793Z,0.00
2023-05-18T02:53:39.817Z,0.00
2023-05-18T02:54:39.777Z,0.00
2023-05-18T02:55:39.760Z,0.00
2023-05-18T02:56:39.762Z,0.00
2023-05-18T02:57:39.756Z,0.00
2023-05-18T02:58:39.722Z,0.00
2023-05-18T02:59:39.724Z,0.00
2023-05-18T03:00:39.702Z,0.00
2023-05-18T03:01:39.736Z,0.00
2023-05-18T03:02:39.794Z,0.00
2023-05-18T03:03:39.793Z,0.00
2023-05-18T03:04:39.663Z,0.00
2023-05-18T03:05:39.646Z,0.00
2023-05-18T03:06:39.637Z,0.00
2023-05-18T03:07:39.623Z,0.00
2023-05-18T03:08:39.646Z,4.00
2023-05-18T03:09:39.607Z,4.00
2023-05-18T03:10:39.621Z,4.00
2023-05-18T03:11:39.581Z,0.00
2023-05-18T03:12:39.572Z,4.00
2023-05-18T03:13:39.582Z,4.00
2023-05-18T03:14:39.601Z,4.00
2023-05-18T03:15:39.559Z,8.00
2023-05-18T03:16:39.609Z,8.00
2023-05-18T03:17:39.558Z,12.00
2023-05-18T03:18:39.547Z,12.00
2023-05-18T03:19:39.502Z,12.00
2023-05-18T03:20:39.530Z,16.00
2023-05-18T03:21:39.483Z,20.00
2023-05-18T03:22:39.471Z,24.00
2023-05-18T03:23:39.452Z,28.00
2023-05-18T03:24:39.452Z,28.00
2023-05-18T03:25:39.438Z,36.00
2023-05-18T03:26:39.470Z,44.00
2023-05-18T03:27:39.408Z,52.00
2023-05-18T03:28:39.405Z,60.00
2023-05-18T03:29:39.421Z,68.00
2023-05-18T03:30:39.440Z,84.00
2023-05-18T03:31:39.438Z,96.00
2023-05-18T03:32:39.470Z,112.00
2023-05-18T03:33:39.345Z,124.00
2023-05-18T03:34:39.349Z,144.00
2023-05-18T03:35:39.325Z,164.00
2023-05-18T03:36:39.340Z,180.00
2023-05-18T03:37:39.308Z,204.00
2023-05-18T03:38:39.436Z,232.00
2023-05-18T03:39:39.280Z,256.00
2023-05-18T03:40:39.272Z,284.00
2023-05-18T03:41:39.266Z,316.00
2023-05-18T03:42:39.270Z,348.00
2023-05-18T03:43:39.238Z,380.00
2023-05-18T03:44:39.336Z,420.00
2023-05-18T03:45:39.250Z,460.00
2023-05-18T03:46:39.262Z,500.00
2023-05-18T03:47:39.251Z,544.00
2023-05-18T03:48:39.199Z,592.00
2023-05-18T03:49:39.177Z,636.00
2023-05-18T03:50:39.213Z,692.00
2023-05-18T03:51:39.162Z,740.00
2023-05-18T03:52:39.155Z,792.00
2023-05-18T03:53:39.131Z,848.00
2023-05-18T03:54:39.133Z,908.00
2023-05-18T03:55:39.115Z,964.00
2023-05-18T03:56:39.181Z,1016.00
2023-05-18T03:57:39.097Z,1076.00
2023-05-18T03:58:39.083Z,1136.00
2023-05-18T03:59:39.070Z,1196.00
2023-05-18T04:00:39.078Z,1256.00
2023-05-18T04:01:39.165Z,1316.00
2023-05-18T04:02:39.210Z,1380.00
2023-05-18T04:03:39.083Z,1444.00
2023-05-18T04:04:39.013Z,1508.00
2023-05-18T04:05:39.006Z,1572.00
2023-05-18T04:06:38.994Z,1640.00
2023-05-18T04:07:38.988Z,1708.00
2023-05-18T04:08:39.019Z,1772.00
2023-05-18T04:09:38.961Z,1840.00
2023-05-18T04:10:38.952Z,1912.00
2023-05-18T04:11:38.941Z,1976.00
2023-05-18T04:12:38.959Z,2044.00
2023-05-18T04:13:38.942Z,2108.00
2023-05-18T04:14:38.950Z,2176.00
2023-05-18T04:15:38.911Z,2248.00
2023-05-18T04:16:38.973Z,2320.00
2023-05-18T04:17:38.953Z,2396.00
2023-05-18T04:18:38.878Z,2472.00
2023-05-18T04:19:38.899Z,2548.00
2023-05-18T04:20:38.895Z,2616.00
2023-05-18T04:21:38.842Z,2700.00
2023-05-18T04:22:38.833Z,2784.00
2023-05-18T04:23:38.849Z,2864.00
2023-05-18T04:24:38.811Z,2944.00
2023-05-18T04:25:38.795Z,3032.00
2023-05-18T04:26:38.799Z,3124.00
2023-05-18T04:27:38.770Z,3208.00
2023-05-18T04:28:38.773Z,3288.00
2023-05-18T04:29:38.747Z,3372.00
2023-05-18T04:30:38.731Z,3444.00
2023-05-18T04:31:38.760Z,3504.00
2023-05-18T04:32:38.768Z,3560.00
2023-05-18T04:33:38.800Z,3604.00
2023-05-18T04:34:38.692Z,3652.00
2023-05-18T04:35:38.725Z,3696.00
2023-05-18T04:36:38.669Z,4460.00
2023-05-18T04:37:38.675Z,8536.00
2023-05-18T04:38:38.684Z,11536.00
2023-05-18T04:39:38.654Z,11604.00
2023-05-18T04:40:38.638Z,11924.00
2023-05-18T04:41:38.617Z,13184.00
2023-05-18T04:42:38.608Z,15200.00
2023-05-18T04:43:38.607Z,16672.00
2023-05-18T04:44:38.614Z,17376.00
2023-05-18T04:45:38.641Z,17120.00
2023-05-18T04:46:38.563Z,15616.00
2023-05-18T04:47:38.574Z,15936.00
2023-05-18T04:48:38.551Z,17344.00
2023-05-18T04:49:38.679Z,16224.00
2023-05-18T04:50:38.550Z,14848.00
2023-05-18T04:51:38.528Z,15488.00
2023-05-18T04:52:38.506Z,17632.00
2023-05-18T04:53:38.494Z,20480.00
2023-05-18T04:54:38.475Z,23360.00
2023-05-18T04:55:38.486Z,19008.00
2023-05-18T04:56:38.474Z,18752.00
2023-05-18T04:57:38.449Z,19168.00
2023-05-18T04:58:38.436Z,23168.00
2023-05-18T04:59:38.437Z,21920.00
2023-05-18T05:00:38.412Z,19648.00
2023-05-18T05:01:38.430Z,20576.00
2023-05-18T05:02:38.467Z,17792.00
2023-05-18T05:03:38.591Z,17824.00
2023-05-18T05:04:38.382Z,19040.00
2023-05-18T05:05:38.379Z,17824.00
2023-05-18T05:06:38.344Z,17248.00
2023-05-18T05:07:38.345Z,17184.00
2023-05-18T05:08:38.340Z,16224.00
2023-05-18T05:09:38.313Z,16384.00
2023-05-18T05:10:38.310Z,16384.00
2023-05-18T05:11:38.304Z,16576.00
2023-05-18T05:12:38.289Z,17536.00
2023-05-18T05:13:38.269Z,18048.00
2023-05-18T05:14:38.286Z,17920.00
2023-05-18T05:15:38.285Z,17856.00
2023-05-18T05:16:38.231Z,18624.00
2023-05-18T05:17:38.283Z,19424.00
2023-05-18T05:18:38.254Z,19648.00
2023-05-18T05:19:38.220Z,20896.00
2023-05-18T05:20:38.199Z,21696.00
2023-05-18T05:21:38.201Z,21248.00
2023-05-18T05:22:38.246Z,21376.00
2023-05-18T05:23:38.172Z,22624.00
2023-05-18T05:24:38.152Z,24576.00
2023-05-18T05:25:38.153Z,26208.00
2023-05-18T05:26:38.132Z,26304.00
2023-05-18T05:27:38.121Z,26816.00
2023-05-18T05:28:38.103Z,28736.00
2023-05-18T05:29:38.104Z,30624.00
2023-05-18T05:30:38.097Z,27488.00
2023-05-18T05:31:38.183Z,26400.00
2023-05-18T05:32:38.158Z,28512.00
2023-05-18T05:33:38.050Z,26336.00
2023-05-18T05:34:38.061Z,27360.00
2023-05-18T05:35:38.363Z,32096.00
2023-05-18T05:36:38.013Z,31392.00
2023-05-18T05:37:38.040Z,31200.00
2023-05-18T05:38:38.011Z,32128.00
2023-05-18T05:39:38.015Z,32768.00
2023-05-18T05:40:37.981Z,33248.00
2023-05-18T05:41:37.962Z,35072.00
2023-05-18T05:42:37.950Z,36416.00
2023-05-18T05:43:37.963Z,36736.00
2023-05-18T05:44:37.926Z,37088.00
2023-05-18T05:45:37.941Z,36928.00
2023-05-18T05:46:37.988Z,38656.00
2023-05-18T05:47:37.970Z,40672.00
2023-05-18T05:48:37.887Z,39712.00
2023-05-18T05:49:37.891Z,38176.00
2023-05-18T05:50:37.874Z,40576.00
2023-05-18T05:51:37.861Z,41472.00
2023-05-18T05:52:37.877Z,40704.00
2023-05-18T05:53:37.854Z,39040.00
2023-05-18T05:54:37.822Z,37536.00
2023-05-18T05:55:37.831Z,38784.00
2023-05-18T05:56:37.800Z,43040.00
2023-05-18T05:57:37.791Z,46496.00
2023-05-18T05:58:37.800Z,46272.00
2023-05-18T05:59:37.779Z,44224.00
2023-05-18T06:00:37.757Z,43520.00
2023-05-18T06:01:37.871Z,41376.00
2023-05-18T06:02:37.933Z,40384.00
2023-05-18T06:03:37.763Z,41760.00
2023-05-18T06:04:37.790Z,43520.00
2023-05-18T06:05:37.722Z,44544.00
2023-05-18T06:06:37.711Z,43200.00
2023-05-18T06:07:37.723Z,44256.00
2023-05-18T06:08:37.692Z,45664.00
2023-05-18T06:09:37.709Z,47520.00
2023-05-18T06:10:37.677Z,47168.00
2023-05-18T06:11:37.645Z,50048.00
2023-05-18T06:12:37.628Z,54016.00
2023-05-18T06:13:37.643Z,56096.00
2023-05-18T06:14:37.612Z,55488.00
2023-05-18T06:15:37.614Z,57760.00
2023-05-18T06:16:37.633Z,59424.00
2023-05-18T06:17:37.632Z,59840.00
2023-05-18T06:18:37.593Z,61760.00
2023-05-18T06:19:37.575Z,63424.00
2023-05-18T06:20:37.554Z,65920.00
2023-05-18T06:21:37.550Z,67040.00
2023-05-18T06:22:37.527Z,68512.00
2023-05-18T06:23:39.516Z,65664.00
2023-05-18T06:24:37.507Z,64960.00
2023-05-18T06:25:37.518Z,66528.00
2023-05-18T06:26:37.498Z,66912.00
2023-05-18T06:27:37.473Z,63808.00
2023-05-18T06:28:37.460Z,58496.00
2023-05-18T06:29:37.465Z,54304.00
2023-05-18T06:30:37.454Z,55712.00
2023-05-18T06:31:37.464Z,54944.00
2023-05-18T06:32:37.586Z,56800.00
2023-05-18T06:33:37.410Z,55872.00
2023-05-18T06:34:37.400Z,53152.00
2023-05-18T06:35:37.388Z,52608.00
2023-05-18T06:36:37.375Z,54752.00
2023-05-18T06:37:37.423Z,54944.00
2023-05-18T06:38:37.358Z,56480.00
2023-05-18T06:39:37.348Z,56320.00
2023-05-18T06:40:37.343Z,58496.00
2023-05-18T06:41:37.347Z,60384.00
2023-05-18T06:42:37.311Z,60160.00
2023-05-18T06:43:37.331Z,60512.00
2023-05-18T06:44:37.290Z,60352.00
2023-05-18T06:45:37.743Z,62912.00
2023-05-18T06:46:37.355Z,64192.00
2023-05-18T06:47:37.287Z,62048.00
2023-05-18T06:48:37.266Z,64640.00
2023-05-18T06:49:37.261Z,68416.00
2023-05-18T06:50:37.240Z,71328.00
2023-05-18T06:51:37.217Z,76544.00
2023-05-18T06:52:37.204Z,71136.00
2023-05-18T06:53:37.205Z,66528.00
2023-05-18T06:54:37.192Z,66464.00
2023-05-18T06:55:37.201Z,73344.00
2023-05-18T06:56:37.168Z,76960.00
2023-05-18T06:57:37.177Z,76640.00
2023-05-18T06:58:37.158Z,77344.00
2023-05-18T06:59:37.131Z,85280.00
2023-05-18T07:00:37.116Z,85152.00
2023-05-18T07:01:37.159Z,80992.00
2023-05-18T07:02:37.131Z,77632.00
2023-05-18T07:03:37.153Z,75040.00
2023-05-18T07:04:37.113Z,72800.00
2023-05-18T07:05:39.374Z,76224.00
2023-05-18T07:06:37.054Z,75136.00
2023-05-18T07:07:37.087Z,82688.00
2023-05-18T07:08:37.049Z,80768.00
2023-05-18T07:09:37.041Z,82784.00
2023-05-18T07:10:37.035Z,82688.00
2023-05-18T07:11:37.001Z,90336.00
2023-05-18T07:12:36.987Z,93952.00
2023-05-18T07:13:37.069Z,98304.00
2023-05-18T07:14:36.961Z,99936.00
2023-05-18T07:15:36.978Z,97024.00
2023-05-18T07:16:37.017Z,97824.00
2023-05-18T07:17:36.983Z,93376.00
2023-05-18T07:18:36.960Z,92096.00
2023-05-18T07:19:36.944Z,90432.00
2023-05-18T07:20:36.911Z,86016.00
2023-05-18T07:21:36.900Z,86272.00
2023-05-18T07:22:36.893Z,90464.00
2023-05-18T07:23:36.871Z,89280.00
2023-05-18T07:24:36.867Z,96320.00
2023-05-18T07:25:36.865Z,98944.00
2023-05-18T07:26:36.862Z,100768.00
2023-05-18T07:27:36.824Z,102112.00
2023-05-18T07:28:36.816Z,101952.00
2023-05-18T07:29:36.829Z,98176.00
2023-05-18T07:30:36.793Z,103424.00
2023-05-18T07:31:36.818Z,102656.00
2023-05-18T07:32:36.843Z,104000.00
2023-05-18T07:33:38.513Z,99808.00
2023-05-18T07:34:36.749Z,97088.00
2023-05-18T07:35:36.744Z,87360.00
2023-05-18T07:36:36.732Z,82976.00
2023-05-18T07:37:36.741Z,80960.00
2023-05-18T07:38:36.706Z,82624.00
2023-05-18T07:39:36.700Z,82496.00
2023-05-18T07:40:36.680Z,84576.00
2023-05-18T07:41:36.676Z,94304.00
2023-05-18T07:42:36.680Z,93152.00
2023-05-18T07:43:36.678Z,91264.00
2023-05-18T07:44:36.638Z,101312.00
2023-05-18T07:45:36.699Z,104000.00
2023-05-18T07:46:36.640Z,105632.00
2023-05-18T07:47:36.655Z,106016.00
2023-05-18T07:48:37.528Z,102240.00
2023-05-18T07:49:36.613Z,105504.00
2023-05-18T07:50:36.574Z,113824.00
2023-05-18T07:51:36.567Z,114784.00
2023-05-18T07:52:36.553Z,119040.00
2023-05-18T07:53:36.542Z,116384.00
2023-05-18T07:54:36.536Z,116864.00
2023-05-18T07:55:36.565Z,116160.00
2023-05-18T07:56:36.514Z,113408.00
2023-05-18T07:57:36.519Z,111296.00
2023-05-18T07:58:36.657Z,110304.00
2023-05-18T07:59:36.476Z,98784.00
2023-05-18T08:00:36.475Z,98880.00
2023-05-18T08:01:36.499Z,95680.00
2023-05-18T08:02:36.535Z,96928.00
2023-05-18T08:03:36.491Z,108512.00
2023-05-18T08:04:36.416Z,116800.00
2023-05-18T08:05:36.418Z,120672.00
2023-05-18T08:06:36.413Z,128480.00
2023-05-18T08:07:36.416Z,121280.00
2023-05-18T08:08:36.378Z,113792.00
2023-05-18T08:09:36.393Z,119264.00
2023-05-18T08:10:36.350Z,121184.00
2023-05-18T08:11:36.342Z,118880.00
2023-05-18T08:12:36.327Z,117312.00
2023-05-18T08:13:36.330Z,119584.00
2023-05-18T08:14:36.321Z,117504.00
2023-05-18T08:15:36.309Z,111520.00
2023-05-18T08:16:36.324Z,108416.00
2023-05-18T08:17:36.340Z,111904.00
2023-05-18T08:18:36.403Z,109024.00
2023-05-18T08:19:36.265Z,110624.00
2023-05-18T08:20:36.248Z,121664.00
2023-05-18T08:21:36.235Z,112064.00
2023-05-18T08:22:36.216Z,117664.00
2023-05-18T08:23:36.208Z,128416.00
2023-05-18T08:24:36.208Z,123008.00
2023-05-18T08:25:36.205Z,120960.00
2023-05-18T08:26:36.183Z,121984.00
2023-05-18T08:27:36.170Z,117184.00
2023-05-18T08:28:36.155Z,118112.00
2023-05-18T08:29:36.143Z,121408.00
2023-05-18T08:30:36.137Z,120800.00
2023-05-18T08:31:36.197Z,120864.00
2023-05-18T08:32:36.174Z,120288.00
2023-05-18T08:33:36.129Z,120000.00
2023-05-18T08:34:36.126Z,121728.00
2023-05-18T08:35:36.077Z,125408.00
2023-05-18T08:36:36.102Z,112320.00
2023-05-18T08:37:36.105Z,117696.00
2023-05-18T08:38:36.047Z,120608.00
2023-05-18T08:39:36.037Z,117408.00
2023-05-18T08:40:36.051Z,114272.00
2023-05-18T08:41:38.654Z,122432.00
2023-05-18T08:42:48.670Z,120256.00
2023-05-18T08:43:37.016Z,133216.00
2023-05-18T08:44:35.985Z,133568.00
2023-05-18T08:45:35.967Z,127872.00
2023-05-18T08:46:35.987Z,121056.00
2023-05-18T08:47:35.995Z,117792.00
2023-05-18T08:48:36.014Z,116768.00
2023-05-18T08:49:35.959Z,120160.00
2023-05-18T08:50:35.915Z,120384.00
2023-05-18T08:51:35.903Z,119712.00
2023-05-18T08:52:35.910Z,128352.00
2023-05-18T08:53:35.885Z,121824.00
2023-05-18T08:54:35.870Z,132544.00
2023-05-18T08:55:35.876Z,132288.00
2023-05-18T08:56:35.853Z,127360.00
2023-05-18T08:57:35.849Z,133408.00
2023-05-18T08:58:35.890Z,136864.00
2023-05-18T08:59:35.818Z,132576.00
2023-05-18T09:00:35.936Z,130592.00
2023-05-18T09:01:35.861Z,136384.00
2023-05-18T09:02:35.819Z,127616.00
2023-05-18T09:03:35.774Z,114272.00
2023-05-18T09:04:35.863Z,125600.00
2023-05-18T09:05:36.073Z,128480.00
2023-05-18T09:06:35.761Z,135680.00
2023-05-18T09:07:35.739Z,126976.00
2023-05-18T09:08:35.756Z,127360.00
2023-05-18T09:09:35.709Z,134560.00
2023-05-18T09:10:35.707Z,131840.00
2023-05-18T09:11:35.724Z,138496.00
2023-05-18T09:12:35.687Z,143168.00
2023-05-18T09:13:35.675Z,143712.00
2023-05-18T09:14:35.665Z,130752.00
2023-05-18T09:15:35.639Z,141568.00
2023-05-18T09:16:35.748Z,133600.00
2023-05-18T09:17:35.666Z,122784.00
2023-05-18T09:18:35.659Z,124736.00
2023-05-18T09:19:35.637Z,122976.00
2023-05-18T09:20:35.595Z,129888.00
2023-05-18T09:21:35.608Z,142848.00
2023-05-18T09:22:35.567Z,140000.00
2023-05-18T09:23:35.554Z,138816.00
2023-05-18T09:24:35.549Z,137120.00
2023-05-18T09:25:35.575Z,146912.00
2023-05-18T09:26:35.531Z,145024.00
2023-05-18T09:27:35.511Z,147456.00
2023-05-18T09:28:35.508Z,135776.00
2023-05-18T09:29:35.488Z,144000.00
2023-05-18T09:30:35.481Z,141408.00
2023-05-18T09:31:35.507Z,139680.00
2023-05-18T09:32:35.513Z,137408.00
2023-05-18T09:33:35.594Z,134400.00
2023-05-18T09:34:35.438Z,140384.00
2023-05-18T09:35:37.107Z,133408.00
2023-05-18T09:36:35.417Z,135232.00
2023-05-18T09:37:35.439Z,141856.00
2023-05-18T09:38:35.403Z,149632.00
2023-05-18T09:39:35.380Z,153792.00
2023-05-18T09:40:35.382Z,155232.00
2023-05-18T09:41:35.359Z,142496.00
2023-05-18T09:42:35.349Z,129600.00
2023-05-18T09:43:35.362Z,132192.00
2023-05-18T09:44:35.349Z,134912.00
2023-05-18T09:45:35.315Z,131136.00
2023-05-18T09:46:35.348Z,130240.00
2023-05-18T09:47:35.310Z,141504.00
2023-05-18T09:48:35.290Z,134432.00
2023-05-18T09:49:35.286Z,137792.00
2023-05-18T09:50:35.273Z,133568.00
2023-05-18T09:51:35.247Z,132608.00
2023-05-18T09:52:35.255Z,140672.00
2023-05-18T09:53:35.255Z,136480.00
2023-05-18T09:54:35.228Z,134272.00
2023-05-18T09:55:35.220Z,132672.00
2023-05-18T09:56:35.205Z,129344.00
2023-05-18T09:57:35.196Z,135552.00
2023-05-18T09:58:35.186Z,141376.00
2023-05-18T09:59:35.163Z,124608.00
2023-05-18T10:00:35.208Z,112704.00
2023-05-18T10:01:35.239Z,129952.00
2023-05-18T10:02:35.154Z,123904.00
2023-05-18T10:03:35.133Z,122816.00
2023-05-18T10:04:35.133Z,129248.00
2023-05-18T10:05:36.336Z,137056.00
2023-05-18T10:06:35.111Z,134208.00
2023-05-18T10:07:35.084Z,128224.00
2023-05-18T10:08:35.072Z,135520.00
2023-05-18T10:09:35.076Z,125312.00
2023-05-18T10:10:35.072Z,125280.00
2023-05-18T10:11:35.036Z,126496.00
2023-05-18T10:12:35.042Z,123168.00
2023-05-18T10:13:35.035Z,125440.00
2023-05-18T10:14:35.001Z,127136.00
2023-05-18T10:15:34.986Z,127776.00
2023-05-18T10:16:35.011Z,135296.00
2023-05-18T10:17:35.082Z,138432.00
2023-05-18T10:18:35.021Z,135168.00
2023-05-18T10:19:34.943Z,148448.00
2023-05-18T10:20:34.941Z,154080.00
2023-05-18T10:21:34.924Z,133792.00
2023-05-18T10:22:34.917Z,131488.00
2023-05-18T10:23:34.914Z,122208.00
2023-05-18T10:24:34.940Z,105760.00
2023-05-18T10:25:34.900Z,83488.00
2023-05-18T10:26:34.890Z,83136.00
2023-05-18T10:27:34.869Z,74176.00
2023-05-18T10:28:34.854Z,52928.00
2023-05-18T10:29:34.895Z,54752.00
2023-05-18T10:30:34.887Z,58016.00
2023-05-18T10:31:34.983Z,70368.00
2023-05-18T10:32:34.850Z,67296.00
2023-05-18T10:33:34.855Z,71648.00
2023-05-18T10:34:34.791Z,90496.00
2023-05-18T10:35:34.781Z,152768.00
2023-05-18T10:36:34.795Z,80352.00
2023-05-18T10:37:34.748Z,104928.00
2023-05-18T10:38:34.742Z,141760.00
2023-05-18T10:39:34.742Z,150688.00
2023-05-18T10:40:34.721Z,172448.00
2023-05-18T10:41:34.771Z,143040.00
2023-05-18T10:42:34.712Z,96544.00
2023-05-18T10:43:34.685Z,89312.00
2023-05-18T10:44:34.804Z,145216.00
2023-05-18T10:45:34.694Z,138784.00
2023-05-18T10:46:34.726Z,147584.00
2023-05-18T10:47:34.848Z,149120.00
2023-05-18T10:48:34.669Z,153728.00
2023-05-18T10:49:34.623Z,147936.00
2023-05-18T10:50:34.617Z,139680.00
2023-05-18T10:51:34.613Z,147840.00
2023-05-18T10:52:34.589Z,146848.00
2023-05-18T10:53:34.593Z,152576.00
2023-05-18T10:54:34.585Z,169248.00
2023-05-18T10:55:34.581Z,179968.00
2023-05-18T10:56:34.549Z,182144.00
2023-05-18T10:57:34.561Z,166816.00
2023-05-18T10:58:34.527Z,97792.00
2023-05-18T10:59:34.514Z,62016.00
2023-05-18T11:00:34.516Z,52544.00
2023-05-18T11:01:34.580Z,42848.00
2023-05-18T11:02:34.514Z,40064.00
2023-05-18T11:03:34.473Z,43200.00
2023-05-18T11:04:34.504Z,38496.00
2023-05-18T11:05:34.451Z,38240.00
2023-05-18T11:06:34.449Z,39104.00
2023-05-18T11:07:34.441Z,40928.00
2023-05-18T11:08:34.431Z,43040.00
2023-05-18T11:09:34.410Z,43520.00
2023-05-18T11:10:34.395Z,43168.00
2023-05-18T11:11:34.384Z,43680.00
2023-05-18T11:12:34.396Z,45632.00
2023-05-18T11:13:34.419Z,51584.00
2023-05-18T11:14:34.367Z,84608.00
2023-05-18T11:15:34.345Z,69600.00
2023-05-18T11:16:34.356Z,56928.00
2023-05-18T11:17:34.473Z,88576.00
2023-05-18T11:18:34.332Z,71232.00
2023-05-18T11:19:34.299Z,78112.00
2023-05-18T11:20:34.286Z,100288.00
2023-05-18T11:21:34.279Z,83008.00
2023-05-18T11:22:34.268Z,119488.00
2023-05-18T11:23:34.268Z,131840.00
2023-05-18T11:24:34.255Z,86976.00
2023-05-18T11:25:34.237Z,127776.00
2023-05-18T11:26:34.222Z,126784.00
2023-05-18T11:27:34.300Z,141856.00
2023-05-18T11:28:34.201Z,96672.00
2023-05-18T11:29:34.225Z,104960.00
2023-05-18T11:30:34.483Z,136992.00
2023-05-18T11:31:34.197Z,85888.00
2023-05-18T11:32:34.282Z,65504.00
2023-05-18T11:33:34.206Z,70976.00
2023-05-18T11:34:34.778Z,68640.00
2023-05-18T11:35:34.129Z,66656.00
2023-05-18T11:36:34.158Z,115424.00
2023-05-18T11:37:34.164Z,98688.00
2023-05-18T11:38:34.101Z,73088.00
2023-05-18T11:39:34.857Z,61696.00
2023-05-18T11:40:34.074Z,59552.00
2023-05-18T11:41:34.119Z,58752.00
2023-05-18T11:42:34.093Z,66656.00
2023-05-18T11:43:34.042Z,58944.00
2023-05-18T11:44:34.034Z,98592.00
2023-05-18T11:45:34.050Z,56640.00
2023-05-18T11:46:34.051Z,50912.00
2023-05-18T11:47:34.098Z,49312.00
2023-05-18T11:48:34.098Z,50400.00
2023-05-18T11:49:33.995Z,63808.00
2023-05-18T11:50:34.210Z,46400.00
2023-05-18T11:51:33.963Z,43488.00
2023-05-18T11:52:33.941Z,43072.00
2023-05-18T11:53:33.948Z,45888.00
2023-05-18T11:54:33.940Z,72384.00
2023-05-18T11:55:33.920Z,49408.00
2023-05-18T11:56:33.903Z,80288.00
2023-05-18T11:57:33.933Z,161504.00
2023-05-18T11:58:33.874Z,90720.00
2023-05-18T11:59:33.892Z,55744.00
2023-05-18T12:00:33.865Z,51808.00
2023-05-18T12:01:33.866Z,56448.00
2023-05-18T12:02:33.979Z,107648.00
2023-05-18T12:03:33.919Z,63648.00
2023-05-18T12:04:33.887Z,48736.00
2023-05-18T12:05:33.798Z,46048.00